Time;durP1;ratioP1;P1;durP2;ratioP2;P2;SDS_P1;SDS_P2;PMS_P1;PMS_P2;Temp;Humidity;BMP_temperature;BMP_pressure;BME280_temperature;BME280_humidity;BME280_pressure;Samples;Min_cycle;Max_cycle;Signal;HPM_P1;HPM_P2
2022/01/08 00:02:08;;;;;;;0.90;0.90;;;;;;;;;;5119392;28;20219;-55
2022/01/08 00:04:36;;;;;;;1.20;1.10;;;;;;;;;;5119067;27;20214;-54
2022/01/08 00:07:04;;;;;;;1.30;1.20;;;;;;;;;;5118711;28;20641;-53
2022/01/08 00:09:31;;;;;;;1.20;1.10;;;;;;;;;;5118529;28;20230;-53
2022/01/08 00:11:58;;;;;;;1.13;1.02;;;;;;;;;;5110955;28;20234;-53
2022/01/08 00:14:28;;;;;;;0.80;0.80;;;;;;;;;;5119031;28;20215;-53
2022/01/08 00:16:56;;;;;;;1.10;1.00;;;;;;;;;;5119409;28;20213;-53
2022/01/08 00:19:23;;;;;;;1.02;1.02;;;;;;;;;;5119478;28;20216;-53
2022/01/08 00:21:51;;;;;;;0.90;0.90;;;;;;;;;;5118697;28;20483;-53
2022/01/08 00:24:18;;;;;;;1.00;1.00;;;;;;;;;;5118660;28;20202;-54
2022/01/08 00:26:46;;;;;;;0.77;0.77;;;;;;;;;;5118628;28;20203;-53
2022/01/08 00:29:13;;;;;;;1.05;1.02;;;;;;;;;;5119168;28;20210;-53
2022/01/08 00:31:42;;;;;;;1.08;0.98;;;;;;;;;;5118825;28;20227;-53
2022/01/08 00:34:10;;;;;;;0.95;0.95;;;;;;;;;;5118567;28;20203;-53
2022/01/08 00:36:38;;;;;;;0.80;0.80;;;;;;;;;;5118741;28;20218;-53
2022/01/08 00:39:05;;;;;;;1.10;1.00;;;;;;;;;;5119095;28;20629;-53
2022/01/08 00:41:32;;;;;;;1.00;0.93;;;;;;;;;;5118610;28;20199;-53
2022/01/08 00:44:00;;;;;;;1.15;1.05;;;;;;;;;;5119725;28;20202;-53
2022/01/08 00:46:27;;;;;;;0.93;0.93;;;;;;;;;;5119350;27;20203;-53
2022/01/08 00:48:56;;;;;;;0.93;0.93;;;;;;;;;;5118717;28;20203;-53
2022/01/08 00:51:23;;;;;;;1.00;1.00;;;;;;;;;;5118334;28;20592;-53
2022/01/08 00:53:51;;;;;;;0.90;0.90;;;;;;;;;;5118422;28;20210;-53
2022/01/08 00:56:18;;;;;;;0.90;0.90;;;;;;;;;;5118688;28;20222;-53
2022/01/08 00:58:45;;;;;;;1.08;1.00;;;;;;;;;;5118341;28;20203;-53
2022/01/08 01:01:13;;;;;;;1.00;0.90;;;;;;;;;;5117766;28;20211;-53
2022/01/08 01:03:40;;;;;;;0.80;0.80;;;;;;;;;;5118507;28;20632;-53
2022/01/08 01:06:09;;;;;;;0.80;0.80;;;;;;;;;;5118095;28;20601;-53
2022/01/08 01:08:36;;;;;;;0.85;0.85;;;;;;;;;;5118910;28;20523;-53
2022/01/08 01:11:04;;;;;;;1.00;1.00;;;;;;;;;;5117823;28;20210;-53
2022/01/08 01:13:31;;;;;;;1.05;0.95;;;;;;;;;;5118642;28;20491;-53
2022/01/08 01:16:01;;;;;;;0.90;0.90;;;;;;;;;;5118331;28;20229;-53
2022/01/08 01:18:28;;;;;;;0.90;0.90;;;;;;;;;;5118489;28;20199;-53
2022/01/08 01:20:56;;;;;;;0.98;0.98;;;;;;;;;;5118957;28;20199;-53
2022/01/08 01:23:30;;;;;;;0.90;0.90;;;;;;;;;;5118659;28;20609;-53
2022/01/08 01:26:02;;;;;;;0.90;0.90;;;;;;;;;;5118166;27;20230;-53
2022/01/08 01:28:40;;;;;;;0.98;0.88;;;;;;;;;;5117939;28;20252;-53
2022/01/08 01:42:31;;;;;;;0.95;0.95;;;;;;;;;;5117192;28;20206;-53
2022/01/08 01:47:43;;;;;;;0.80;0.80;;;;;;;;;;5116733;28;20584;-53
2022/01/08 01:50:11;;;;;;;0.90;0.90;;;;;;;;;;5117300;28;20582;-53
2022/01/08 01:52:38;;;;;;;0.80;0.80;;;;;;;;;;5116818;28;20502;-53
2022/01/08 01:55:08;;;;;;;1.02;0.90;;;;;;;;;;5117089;28;20203;-54
2022/01/08 01:57:35;;;;;;;0.82;0.82;;;;;;;;;;5117078;28;20207;-53
2022/01/08 02:00:04;;;;;;;0.82;0.82;;;;;;;;;;5116736;28;20485;-53
2022/01/08 02:02:32;;;;;;;0.80;0.80;;;;;;;;;;5117157;28;20584;-53
2022/01/08 02:04:59;;;;;;;0.90;0.90;;;;;;;;;;5116825;28;20203;-53
2022/01/08 02:07:28;;;;;;;0.80;0.80;;;;;;;;;;5117406;28;20199;-53
2022/01/08 02:09:56;;;;;;;0.75;0.75;;;;;;;;;;5116970;28;20246;-53
2022/01/08 02:12:25;;;;;;;0.75;0.75;;;;;;;;;;5117566;28;20226;-53
2022/01/08 02:14:52;;;;;;;0.60;0.60;;;;;;;;;;5118035;28;20456;-53
2022/01/08 02:17:20;;;;;;;0.75;0.75;;;;;;;;;;5117397;28;20203;-53
2022/01/08 02:19:47;;;;;;;0.80;0.70;;;;;;;;;;5117399;28;20519;-53
2022/01/08 02:22:20;;;;;;;0.90;0.90;;;;;;;;;;5117539;28;20206;-53
2022/01/08 02:24:49;;;;;;;0.80;0.80;;;;;;;;;;5116378;28;20207;-53
2022/01/08 02:27:16;;;;;;;1.00;0.90;;;;;;;;;;5117488;28;20203;-53
2022/01/08 02:29:44;;;;;;;0.80;0.80;;;;;;;;;;5116694;28;20218;-53
2022/01/08 02:32:12;;;;;;;0.93;0.80;;;;;;;;;;5116788;28;20242;-53
2022/01/08 02:34:41;;;;;;;1.10;1.00;;;;;;;;;;5116737;28;20199;-53
2022/01/08 02:37:09;;;;;;;0.80;0.80;;;;;;;;;;5118002;28;20210;-53
2022/01/08 02:39:41;;;;;;;1.10;1.00;;;;;;;;;;5116933;28;20203;-53
2022/01/08 02:42:11;;;;;;;1.20;0.90;;;;;;;;;;5118036;28;20206;-53
2022/01/08 02:44:38;;;;;;;0.77;0.77;;;;;;;;;;5117188;28;20203;-53
2022/01/08 02:47:05;;;;;;;0.75;0.75;;;;;;;;;;5116998;28;20207;-53
2022/01/08 02:49:34;;;;;;;0.85;0.80;;;;;;;;;;5116821;28;20206;-53
2022/01/08 02:52:01;;;;;;;0.80;0.80;;;;;;;;;;5116858;28;20262;-53
2022/01/08 02:54:28;;;;;;;0.90;0.90;;;;;;;;;;5116930;28;20214;-53
2022/01/08 02:56:57;;;;;;;0.80;0.80;;;;;;;;;;5117620;28;20218;-53
2022/01/08 02:59:25;;;;;;;0.90;0.90;;;;;;;;;;5116644;28;20227;-53
2022/01/08 03:01:53;;;;;;;0.90;0.90;;;;;;;;;;5116811;28;20230;-53
2022/01/08 03:04:21;;;;;;;1.00;0.93;;;;;;;;;;5117064;28;20204;-53
2022/01/08 03:06:48;;;;;;;0.80;0.80;;;;;;;;;;5117322;28;20207;-53
2022/01/08 03:09:15;;;;;;;1.02;0.80;;;;;;;;;;5116723;28;20250;-53
2022/01/08 03:11:43;;;;;;;0.82;0.82;;;;;;;;;;5117104;28;20606;-53
2022/01/08 03:14:12;;;;;;;0.90;0.90;;;;;;;;;;5116865;28;20466;-53
2022/01/08 03:16:40;;;;;;;0.95;0.88;;;;;;;;;;5119031;28;20210;-53
2022/01/08 03:19:10;;;;;;;0.80;0.80;;;;;;;;;;5121169;28;20211;-53
2022/01/08 03:21:39;;;;;;;0.90;0.90;;;;;;;;;;5120459;28;20236;-53
2022/01/08 03:24:09;;;;;;;0.88;0.88;;;;;;;;;;5120927;27;20512;-53
2022/01/08 03:26:37;;;;;;;0.80;0.80;;;;;;;;;;5120694;28;20207;-53
2022/01/08 03:29:04;;;;;;;0.80;0.80;;;;;;;;;;5120986;28;20207;-53
2022/01/08 03:31:33;;;;;;;0.70;0.70;;;;;;;;;;5120025;28;20203;-53
2022/01/08 03:34:01;;;;;;;1.05;1.05;;;;;;;;;;5120459;28;20227;-53
2022/01/08 03:36:28;;;;;;;0.80;0.80;;;;;;;;;;5120524;28;20211;-53
2022/01/08 03:38:55;;;;;;;0.85;0.85;;;;;;;;;;5120485;28;20203;-53
2022/01/08 03:41:23;;;;;;;0.85;0.85;;;;;;;;;;5120413;28;20213;-53
2022/01/08 03:43:50;;;;;;;0.85;0.82;;;;;;;;;;5120521;28;20199;-53
2022/01/08 03:46:20;;;;;;;0.90;0.90;;;;;;;;;;5120062;28;20242;-53
2022/01/08 03:49:12;;;;;;;0.90;0.90;;;;;;;;;;5120732;28;20239;-53
2022/01/08 03:51:40;;;;;;;1.17;1.00;;;;;;;;;;5120440;28;20552;-53
2022/01/08 03:54:07;;;;;;;1.00;0.90;;;;;;;;;;5120160;28;20223;-53
2022/01/08 03:56:35;;;;;;;0.90;0.90;;;;;;;;;;5119855;28;20587;-53
2022/01/08 03:59:02;;;;;;;0.95;0.95;;;;;;;;;;5119687;27;20203;-53
2022/01/08 04:01:29;;;;;;;1.02;1.02;;;;;;;;;;5119819;28;20211;-53
2022/01/08 04:03:58;;;;;;;0.90;0.90;;;;;;;;;;5120107;28;20221;-53
2022/01/08 04:06:25;;;;;;;1.10;1.00;;;;;;;;;;5120012;28;20217;-53
2022/01/08 04:08:57;;;;;;;0.95;0.95;;;;;;;;;;5119668;28;20238;-53
2022/01/08 04:11:25;;;;;;;0.80;0.80;;;;;;;;;;5119509;28;20552;-53
2022/01/08 04:13:53;;;;;;;0.90;0.90;;;;;;;;;;5119175;28;20234;-53
2022/01/08 04:16:25;;;;;;;0.98;0.93;;;;;;;;;;5119300;27;20302;-53
2022/01/08 04:18:52;;;;;;;1.10;1.00;;;;;;;;;;5119744;28;20460;-53
2022/01/08 04:24:07;;;;;;;1.13;1.02;;;;;;;;;;5118910;28;20201;-53
2022/01/08 04:26:35;;;;;;;0.80;0.80;;;;;;;;;;5119406;28;20206;-53
2022/01/08 04:29:04;;;;;;;1.15;0.90;;;;;;;;;;5119091;28;20214;-53
2022/01/08 04:31:32;;;;;;;0.90;0.90;;;;;;;;;;5119326;28;20214;-53
2022/01/08 04:33:59;;;;;;;1.10;1.00;;;;;;;;;;5119133;28;20226;-53
2022/01/08 04:36:28;;;;;;;1.02;0.80;;;;;;;;;;5119252;28;20203;-53
2022/01/08 04:38:56;;;;;;;0.80;0.80;;;;;;;;;;5119252;28;20575;-53
2022/01/08 04:41:23;;;;;;;0.80;0.80;;;;;;;;;;5118659;28;20218;-53
2022/01/08 04:43:50;;;;;;;0.80;0.80;;;;;;;;;;5118863;28;20516;-53
2022/01/08 04:46:18;;;;;;;1.00;1.00;;;;;;;;;;5118641;28;20281;-53
2022/01/08 04:48:45;;;;;;;0.80;0.80;;;;;;;;;;5118985;28;20249;-53
2022/01/08 04:51:13;;;;;;;0.90;0.90;;;;;;;;;;5118203;28;20211;-53
2022/01/08 04:53:42;;;;;;;1.15;0.90;;;;;;;;;;5118417;28;20563;-53
2022/01/08 04:56:09;;;;;;;0.80;0.80;;;;;;;;;;5118341;28;20613;-53
2022/01/08 04:58:37;;;;;;;0.95;0.95;;;;;;;;;;5118540;28;20211;-53
2022/01/08 05:01:04;;;;;;;0.80;0.80;;;;;;;;;;5118520;28;20203;-53
2022/01/08 05:03:31;;;;;;;0.80;0.80;;;;;;;;;;5118704;28;20198;-53
2022/01/08 05:05:58;;;;;;;1.23;0.80;;;;;;;;;;5118549;28;20609;-53
2022/01/08 05:08:26;;;;;;;0.82;0.82;;;;;;;;;;5117214;28;20223;-53
2022/01/08 05:10:54;;;;;;;0.90;0.90;;;;;;;;;;5118068;28;20202;-53
2022/01/08 05:13:22;;;;;;;0.70;0.70;;;;;;;;;;5118337;28;20230;-53
2022/01/08 05:15:49;;;;;;;0.90;0.90;;;;;;;;;;5118820;28;20202;-53
2022/01/08 05:18:16;;;;;;;0.68;0.68;;;;;;;;;;5120594;28;20203;-53
2022/01/08 05:20:53;;;;;;;0.73;0.73;;;;;;;;;;5128499;28;20207;-53
2022/01/08 05:23:20;;;;;;;0.65;0.65;;;;;;;;;;5128861;28;20202;-52
2022/01/08 05:25:48;;;;;;;1.02;0.82;;;;;;;;;;5119807;28;20619;-53
2022/01/08 05:28:16;;;;;;;0.88;0.88;;;;;;;;;;5118908;28;20220;-53
2022/01/08 05:30:44;;;;;;;0.80;0.80;;;;;;;;;;5118748;28;20202;-53
2022/01/08 05:33:12;;;;;;;0.70;0.70;;;;;;;;;;5118516;28;20649;-53
2022/01/08 05:35:39;;;;;;;0.60;0.60;;;;;;;;;;5118098;28;20206;-53
2022/01/08 05:38:06;;;;;;;0.73;0.73;;;;;;;;;;5117348;28;20578;-53
2022/01/08 05:40:33;;;;;;;0.70;0.70;;;;;;;;;;5117359;28;20206;-53
2022/01/08 05:43:01;;;;;;;0.82;0.82;;;;;;;;;;5118254;28;20597;-53
2022/01/08 05:45:30;;;;;;;0.70;0.70;;;;;;;;;;5117813;28;20213;-53
2022/01/08 05:47:57;;;;;;;0.75;0.73;;;;;;;;;;5118402;28;20210;-53
2022/01/08 05:50:25;;;;;;;0.90;0.90;;;;;;;;;;5117518;28;20225;-53
2022/01/08 05:52:52;;;;;;;0.80;0.80;;;;;;;;;;5117648;28;20219;-53
2022/01/08 05:55:19;;;;;;;0.80;0.80;;;;;;;;;;5117492;28;20223;-53
2022/01/08 05:57:46;;;;;;;0.70;0.70;;;;;;;;;;5118179;28;20505;-53
2022/01/08 06:00:14;;;;;;;0.68;0.68;;;;;;;;;;5117329;28;20203;-53
2022/01/08 06:02:43;;;;;;;0.80;0.80;;;;;;;;;;5118008;28;20218;-53
2022/01/08 06:05:11;;;;;;;0.70;0.70;;;;;;;;;;5117590;28;20203;-53
2022/01/08 06:07:38;;;;;;;0.82;0.82;;;;;;;;;;5117029;28;20203;-53
2022/01/08 06:10:06;;;;;;;0.80;0.80;;;;;;;;;;5116895;28;20210;-53
2022/01/08 06:12:33;;;;;;;0.80;0.80;;;;;;;;;;5117402;28;20214;-53
2022/01/08 06:15:01;;;;;;;0.90;0.90;;;;;;;;;;5117427;28;20214;-53
2022/01/08 06:17:28;;;;;;;0.80;0.80;;;;;;;;;;5117067;28;20614;-53
2022/01/08 06:19:57;;;;;;;0.75;0.75;;;;;;;;;;5117167;28;20206;-53
2022/01/08 06:22:25;;;;;;;0.82;0.82;;;;;;;;;;5116869;28;20203;-53
2022/01/08 06:24:52;;;;;;;0.70;0.70;;;;;;;;;;5117223;28;20625;-53
2022/01/08 06:27:19;;;;;;;0.70;0.70;;;;;;;;;;5117914;28;20214;-53
2022/01/08 06:29:47;;;;;;;0.80;0.80;;;;;;;;;;5117281;28;20647;-53
2022/01/08 06:32:15;;;;;;;0.70;0.70;;;;;;;;;;5118063;28;20210;-53
2022/01/08 06:34:42;;;;;;;0.68;0.68;;;;;;;;;;5116720;28;20231;-53
2022/01/08 06:37:11;;;;;;;0.88;0.80;;;;;;;;;;5116881;28;20710;-53
2022/01/08 06:39:38;;;;;;;0.60;0.60;;;;;;;;;;5117089;28;20213;-53
2022/01/08 06:42:06;;;;;;;0.88;0.85;;;;;;;;;;5116794;28;20203;-53
2022/01/08 06:44:33;;;;;;;0.73;0.73;;;;;;;;;;5117995;28;20199;-53
2022/01/08 06:47:01;;;;;;;0.75;0.75;;;;;;;;;;5117723;28;20593;-52
2022/01/08 06:49:28;;;;;;;0.80;0.70;;;;;;;;;;5117615;28;20206;-53
2022/01/08 06:51:55;;;;;;;0.80;0.80;;;;;;;;;;5119667;28;20199;-53
2022/01/08 06:54:24;;;;;;;0.63;0.63;;;;;;;;;;5121680;28;20632;-52
2022/01/08 06:56:52;;;;;;;0.75;0.70;;;;;;;;;;5121818;28;20207;-52
2022/01/08 06:59:19;;;;;;;1.00;0.90;;;;;;;;;;5121493;28;20207;-52
2022/01/08 07:01:46;;;;;;;0.70;0.70;;;;;;;;;;5121283;28;20214;-52
2022/01/08 07:04:14;;;;;;;0.75;0.75;;;;;;;;;;5120531;28;20203;-52
2022/01/08 07:06:41;;;;;;;0.68;0.68;;;;;;;;;;5120549;28;20210;-52
2022/01/08 07:09:08;;;;;;;0.80;0.80;;;;;;;;;;5120770;28;20242;-53
2022/01/08 07:11:37;;;;;;;0.77;0.70;;;;;;;;;;5120870;28;20202;-53
2022/01/08 07:14:04;;;;;;;1.00;0.90;;;;;;;;;;5120370;28;20223;-53
2022/01/08 07:16:32;;;;;;;1.05;0.98;;;;;;;;;;5121181;28;20277;-53
2022/01/08 07:18:59;;;;;;;0.90;0.90;;;;;;;;;;5100082;28;20203;-53
2022/01/08 07:21:26;;;;;;;0.98;0.90;;;;;;;;;;5100486;28;20203;-53
2022/01/08 07:23:56;;;;;;;0.85;0.85;;;;;;;;;;5100355;28;20486;-53
2022/01/08 07:26:23;;;;;;;1.00;1.00;;;;;;;;;;5100182;28;20264;-53
2022/01/08 07:28:52;;;;;;;0.90;0.90;;;;;;;;;;5099604;28;20207;-53
2022/01/08 07:31:19;;;;;;;1.00;0.90;;;;;;;;;;5100547;28;20206;-53
2022/01/08 07:33:49;;;;;;;0.98;0.90;;;;;;;;;;5100326;28;20238;-53
2022/01/08 07:36:17;;;;;;;0.73;0.73;;;;;;;;;;5099662;28;20208;-53
2022/01/08 07:38:45;;;;;;;1.00;0.80;;;;;;;;;;5099855;28;20482;-54
2022/01/08 07:41:12;;;;;;;0.80;0.80;;;;;;;;;;5100008;28;20214;-53
2022/01/08 07:43:40;;;;;;;0.90;0.90;;;;;;;;;;5099780;28;20208;-53
2022/01/08 07:46:09;;;;;;;0.90;0.90;;;;;;;;;;5119489;28;20199;-53
2022/01/08 07:48:36;;;;;;;0.80;0.80;;;;;;;;;;5120269;28;20225;-53
2022/01/08 07:51:04;;;;;;;0.98;0.88;;;;;;;;;;5119966;28;20213;-53
2022/01/08 07:53:31;;;;;;;1.05;0.90;;;;;;;;;;5119415;28;20227;-53
2022/01/08 07:55:58;;;;;;;0.90;0.90;;;;;;;;;;5119480;28;20195;-53
2022/01/08 07:58:26;;;;;;;0.80;0.80;;;;;;;;;;5119749;28;20210;-53
2022/01/08 08:00:53;;;;;;;1.20;1.10;;;;;;;;;;5119937;28;20741;-53
2022/01/08 08:03:22;;;;;;;1.08;1.08;;;;;;;;;;5118995;28;20229;-53
2022/01/08 08:05:50;;;;;;;0.80;0.80;;;;;;;;;;5119411;28;20203;-53
2022/01/08 08:08:18;;;;;;;0.90;0.90;;;;;;;;;;5119302;28;20231;-53
2022/01/08 08:10:47;;;;;;;1.02;1.00;;;;;;;;;;5119253;28;20211;-53
2022/01/08 08:13:14;;;;;;;1.08;1.02;;;;;;;;;;5118828;28;20199;-53
2022/01/08 08:15:42;;;;;;;1.08;1.00;;;;;;;;;;5119743;28;20218;-53
2022/01/08 08:18:09;;;;;;;1.38;1.10;;;;;;;;;;5119503;28;20214;-53
2022/01/08 08:20:38;;;;;;;0.88;0.80;;;;;;;;;;5119140;28;20202;-53
2022/01/08 08:23:06;;;;;;;1.00;0.95;;;;;;;;;;5119216;28;20199;-53
2022/01/08 08:25:33;;;;;;;1.40;0.93;;;;;;;;;;5119388;28;20594;-53
2022/01/08 08:28:00;;;;;;;1.20;1.10;;;;;;;;;;5119516;28;20594;-53
2022/01/08 08:30:28;;;;;;;1.55;1.20;;;;;;;;;;5118702;28;20214;-53
2022/01/08 08:32:55;;;;;;;1.00;1.00;;;;;;;;;;5118742;28;20210;-53
2022/01/08 08:35:23;;;;;;;0.90;0.90;;;;;;;;;;5119149;28;20637;-53
2022/01/08 08:37:51;;;;;;;1.20;1.10;;;;;;;;;;5118702;28;20202;-53
2022/01/08 08:40:20;;;;;;;1.25;1.00;;;;;;;;;;5117914;28;20269;-53
2022/01/08 08:42:47;;;;;;;1.60;1.15;;;;;;;;;;5118212;28;20579;-53
2022/01/08 08:45:15;;;;;;;1.27;1.17;;;;;;;;;;5118732;27;20205;-53
2022/01/08 08:47:43;;;;;;;1.30;1.20;;;;;;;;;;5118390;28;20469;-53
2022/01/08 08:50:12;;;;;;;1.27;1.17;;;;;;;;;;5118631;28;20203;-53
2022/01/08 08:52:39;;;;;;;1.30;1.20;;;;;;;;;;5117938;28;20207;-53
2022/01/08 08:55:09;;;;;;;1.35;1.20;;;;;;;;;;5117874;28;20241;-53
2022/01/08 08:57:37;;;;;;;1.42;1.33;;;;;;;;;;5117935;28;20202;-53
2022/01/08 09:00:04;;;;;;;1.83;1.13;;;;;;;;;;5118197;28;20203;-53
2022/01/08 09:02:32;;;;;;;1.52;1.27;;;;;;;;;;5116907;28;20203;-53
2022/01/08 09:04:59;;;;;;;1.55;1.30;;;;;;;;;;5118170;28;20198;-53
2022/01/08 09:07:27;;;;;;;1.40;1.30;;;;;;;;;;5117582;27;20206;-53
2022/01/08 09:09:54;;;;;;;1.65;1.20;;;;;;;;;;5117657;28;20238;-53
2022/01/08 09:12:23;;;;;;;1.38;1.27;;;;;;;;;;5118183;28;20207;-53
2022/01/08 09:14:50;;;;;;;1.98;1.33;;;;;;;;;;5116958;28;20251;-53
2022/01/08 09:17:18;;;;;;;1.40;1.30;;;;;;;;;;5117653;28;20210;-53
2022/01/08 09:19:45;;;;;;;1.23;1.13;;;;;;;;;;5118350;28;20203;-53
2022/01/08 09:22:13;;;;;;;1.40;1.30;;;;;;;;;;5118429;28;20203;-53
2022/01/08 09:24:41;;;;;;;1.25;1.15;;;;;;;;;;5131182;28;20199;-54
2022/01/08 09:27:08;;;;;;;1.75;1.40;;;;;;;;;;5129669;28;20199;-53
2022/01/08 09:29:37;;;;;;;1.80;1.33;;;;;;;;;;5121555;28;20210;-53
2022/01/08 09:32:05;;;;;;;1.67;1.58;;;;;;;;;;5117978;28;20587;-53
2022/01/08 09:34:33;;;;;;;1.50;1.40;;;;;;;;;;5117042;28;20211;-53
2022/01/08 09:37:00;;;;;;;1.80;1.30;;;;;;;;;;5116555;27;20199;-53
2022/01/08 09:39:28;;;;;;;1.50;1.40;;;;;;;;;;5117935;28;20203;-53
2022/01/08 09:41:55;;;;;;;1.88;1.50;;;;;;;;;;5116435;28;20609;-53
2022/01/08 09:44:23;;;;;;;2.25;1.20;;;;;;;;;;5116561;28;20206;-53
2022/01/08 09:46:51;;;;;;;1.60;1.50;;;;;;;;;;5116384;28;20211;-53
2022/01/08 09:49:19;;;;;;;2.17;1.48;;;;;;;;;;5116972;28;20207;-53
2022/01/08 09:51:46;;;;;;;1.50;1.40;;;;;;;;;;5116424;28;20617;-53
2022/01/08 09:54:13;;;;;;;1.70;1.60;;;;;;;;;;5116520;28;20223;-53
2022/01/08 09:56:41;;;;;;;1.50;1.40;;;;;;;;;;5115949;28;20213;-53
2022/01/08 09:59:08;;;;;;;1.80;1.60;;;;;;;;;;5116397;28;20582;-53
2022/01/08 10:01:36;;;;;;;1.40;1.30;;;;;;;;;;5115385;28;20199;-53
2022/01/08 10:04:06;;;;;;;1.70;1.23;;;;;;;;;;5117080;28;20203;-53
2022/01/08 10:06:34;;;;;;;1.45;1.35;;;;;;;;;;5117066;28;20211;-53
2022/01/08 10:09:01;;;;;;;1.40;1.30;;;;;;;;;;5116165;28;20522;-53
2022/01/08 10:11:29;;;;;;;1.60;1.50;;;;;;;;;;5116510;28;20210;-53
2022/01/08 10:14:02;;;;;;;1.60;1.50;;;;;;;;;;5116163;28;20214;-53
2022/01/08 10:19:20;;;;;;;6.93;6.20;;;;;;;;;;5115904;28;20198;-53
2022/01/08 10:21:48;;;;;;;7.00;6.13;;;;;;;;;;5115983;28;20203;-53
2022/01/08 10:24:19;;;;;;;6.78;5.93;;;;;;;;;;5116674;28;20199;-53
2022/01/08 10:26:49;;;;;;;7.47;5.80;;;;;;;;;;5119996;28;20203;-53
2022/01/08 10:29:17;;;;;;;6.32;5.47;;;;;;;;;;5119982;28;20195;-53
2022/01/08 10:31:45;;;;;;;6.28;5.38;;;;;;;;;;5120650;28;20210;-53
2022/01/08 10:34:13;;;;;;;5.90;5.22;;;;;;;;;;5120402;28;20218;-53
2022/01/08 10:36:42;;;;;;;5.70;4.78;;;;;;;;;;5119774;28;20203;-53
2022/01/08 10:39:11;;;;;;;6.05;5.10;;;;;;;;;;5120832;28;20202;-53
2022/01/08 10:41:40;;;;;;;5.82;5.07;;;;;;;;;;5120586;28;20206;-53
2022/01/08 10:44:09;;;;;;;7.13;4.22;;;;;;;;;;5119776;28;20203;-53
2022/01/08 10:46:36;;;;;;;5.07;4.32;;;;;;;;;;5119807;28;20199;-53
2022/01/08 10:49:05;;;;;;;6.10;4.10;;;;;;;;;;5120143;28;20217;-53
2022/01/08 10:51:35;;;;;;;7.00;4.13;;;;;;;;;;5119443;28;20203;-53
2022/01/08 10:54:06;;;;;;;4.30;3.90;;;;;;;;;;5120114;28;20598;-53
2022/01/08 10:56:35;;;;;;;5.43;3.80;;;;;;;;;;5118827;28;20528;-53
2022/01/08 10:59:03;;;;;;;4.35;3.75;;;;;;;;;;5119626;28;20214;-53
2022/01/08 11:01:55;;;;;;;4.68;3.60;;;;;;;;;;5120200;28;20655;-53
2022/01/08 11:04:33;;;;;;;5.07;4.03;;;;;;;;;;5119421;28;20753;-53
2022/01/08 11:07:02;;;;;;;5.80;3.72;;;;;;;;;;5119328;28;20285;-53
2022/01/08 11:09:31;;;;;;;4.68;3.25;;;;;;;;;;5119789;28;20233;-53
2022/01/08 11:12:00;;;;;;;5.95;3.65;;;;;;;;;;5120009;28;20211;-53
2022/01/08 11:17:18;;;;;;;3.67;2.92;;;;;;;;;;5119390;28;20315;-53
2022/01/08 11:19:46;;;;;;;4.13;3.08;;;;;;;;;;5119186;28;20195;-53
2022/01/08 11:22:14;;;;;;;3.28;2.75;;;;;;;;;;5118573;28;20780;-53
2022/01/08 11:24:45;;;;;;;3.53;2.53;;;;;;;;;;5118446;28;20205;-53
2022/01/08 11:27:14;;;;;;;2.88;2.60;;;;;;;;;;5118878;28;20195;-53
2022/01/08 11:29:43;;;;;;;4.13;2.95;;;;;;;;;;5118714;28;20234;-53
2022/01/08 11:32:11;;;;;;;2.60;2.30;;;;;;;;;;5117549;28;20195;-56
2022/01/08 11:34:43;;;;;;;3.13;2.47;;;;;;;;;;5114701;28;20303;-56
2022/01/08 11:37:11;;;;;;;3.95;2.67;;;;;;;;;;5116467;28;20251;-56
2022/01/08 11:39:38;;;;;;;3.70;2.38;;;;;;;;;;5117374;28;20210;-56
2022/01/08 11:42:07;;;;;;;4.05;2.25;;;;;;;;;;5118028;28;20203;-55
2022/01/08 11:44:35;;;;;;;4.53;2.33;;;;;;;;;;5117318;28;20195;-56
2022/01/08 11:47:03;;;;;;;3.05;1.92;;;;;;;;;;5116590;28;20260;-56
2022/01/08 11:49:31;;;;;;;3.67;2.30;;;;;;;;;;5116943;28;20461;-56
2022/01/08 11:52:17;;;;;;;3.03;1.98;;;;;;;;;;5116808;28;20233;-56
2022/01/08 11:54:45;;;;;;;5.05;3.42;;;;;;;;;;5115973;28;20230;-56
2022/01/08 11:57:18;;;;;;;9.23;8.32;;;;;;;;;;5117357;28;20203;-56
2022/01/08 11:59:46;;;;;;;8.20;7.50;;;;;;;;;;5117856;28;20818;-56
2022/01/08 12:02:14;;;;;;;7.15;6.53;;;;;;;;;;5116653;28;20229;-56
2022/01/08 12:04:44;;;;;;;7.25;6.65;;;;;;;;;;5116385;28;20203;-56
2022/01/08 12:07:33;;;;;;;6.90;6.20;;;;;;;;;;5116510;28;20222;-56
2022/01/08 12:10:14;;;;;;;6.13;5.63;;;;;;;;;;5117056;27;20203;-56
2022/01/08 12:12:46;;;;;;;6.63;5.80;;;;;;;;;;5116353;28;20291;-56
2022/01/08 12:15:14;;;;;;;6.15;5.60;;;;;;;;;;5117544;28;20226;-56
2022/01/08 12:17:54;;;;;;;5.78;5.20;;;;;;;;;;5116343;28;20199;-56
2022/01/08 12:20:39;;;;;;;5.55;4.85;;;;;;;;;;5115427;28;20202;-56
2022/01/08 12:23:26;;;;;;;5.10;4.60;;;;;;;;;;5116999;28;20460;-56
2022/01/08 12:25:53;;;;;;;5.25;4.65;;;;;;;;;;5116857;28;20229;-56
2022/01/08 12:28:39;;;;;;;4.57;4.18;;;;;;;;;;5117064;28;20202;-56
2022/01/08 12:31:32;;;;;;;4.45;3.85;;;;;;;;;;5116598;28;20214;-56
2022/01/08 12:34:18;;;;;;;4.45;4.05;;;;;;;;;;5114883;28;20199;-56
2022/01/08 12:36:52;;;;;;;4.30;3.90;;;;;;;;;;5114650;28;20233;-56
2022/01/08 12:39:24;;;;;;;5.15;3.88;;;;;;;;;;5116318;28;20559;-56
2022/01/08 12:41:51;;;;;;;3.83;3.53;;;;;;;;;;5115639;28;20195;-56
2022/01/08 12:44:26;;;;;;;4.15;3.70;;;;;;;;;;5115601;28;20210;-56
2022/01/08 12:46:55;;;;;;;4.00;3.50;;;;;;;;;;5115295;28;20195;-56
2022/01/08 12:49:23;;;;;;;3.75;3.45;;;;;;;;;;5114824;28;20263;-57
2022/01/08 12:52:10;;;;;;;3.80;3.42;;;;;;;;;;5115169;28;20205;-56
2022/01/08 12:54:38;;;;;;;3.63;3.25;;;;;;;;;;5116198;28;20203;-56
2022/01/08 12:57:06;;;;;;;3.20;3.00;;;;;;;;;;5115928;28;20225;-56
2022/01/08 12:59:35;;;;;;;3.55;3.25;;;;;;;;;;5115945;28;20235;-56
2022/01/08 13:02:07;;;;;;;3.53;3.22;;;;;;;;;;5115364;27;20202;-56
2022/01/08 13:04:35;;;;;;;3.38;3.08;;;;;;;;;;5115544;28;20195;-56
2022/01/08 13:07:02;;;;;;;3.35;3.05;;;;;;;;;;5115274;28;20198;-56
2022/01/08 13:09:30;;;;;;;3.10;2.90;;;;;;;;;;5115724;28;20227;-57
2022/01/08 13:11:57;;;;;;;3.38;3.08;;;;;;;;;;5114906;28;20217;-56
2022/01/08 13:14:29;;;;;;;3.00;2.65;;;;;;;;;;5115604;28;20195;-56
2022/01/08 13:16:57;;;;;;;2.90;2.60;;;;;;;;;;5114901;28;20474;-56
2022/01/08 13:19:27;;;;;;;3.15;2.83;;;;;;;;;;5115624;27;20222;-56
2022/01/08 13:21:55;;;;;;;3.15;2.70;;;;;;;;;;5115000;28;20570;-56
2022/01/08 13:24:23;;;;;;;2.80;2.60;;;;;;;;;;5115450;28;20202;-56
2022/01/08 13:26:51;;;;;;;2.95;2.67;;;;;;;;;;5114648;28;20202;-56
2022/01/08 13:29:25;;;;;;;2.50;2.30;;;;;;;;;;5115978;28;20582;-56
2022/01/08 13:31:53;;;;;;;2.88;2.60;;;;;;;;;;5114836;28;20203;-56
2022/01/08 13:34:21;;;;;;;2.35;2.15;;;;;;;;;;5114672;28;20203;-56
2022/01/08 13:37:04;;;;;;;2.58;2.38;;;;;;;;;;5115372;28;20644;-56
2022/01/08 13:39:34;;;;;;;2.65;2.45;;;;;;;;;;5115223;28;20203;-56
2022/01/08 13:42:10;;;;;;;2.35;2.15;;;;;;;;;;5114525;28;20226;-56
2022/01/08 13:44:38;;;;;;;2.53;2.30;;;;;;;;;;5115181;28;20202;-56
2022/01/08 13:47:06;;;;;;;21.75;19.45;;;;;;;;;;5116008;28;20206;-56
2022/01/08 13:49:34;;;;;;;21.23;19.13;;;;;;;;;;5116534;28;20311;-56
2022/01/08 13:52:04;;;;;;;18.40;16.48;;;;;;;;;;5116156;28;20206;-56
2022/01/08 13:54:36;;;;;;;16.20;14.60;;;;;;;;;;5115860;28;20253;-56
2022/01/08 13:57:13;;;;;;;15.40;13.90;;;;;;;;;;5115541;28;20222;-56
2022/01/08 13:59:40;;;;;;;13.85;12.45;;;;;;;;;;5115652;28;20203;-56
2022/01/08 14:02:08;;;;;;;13.77;12.38;;;;;;;;;;5114927;28;20199;-56
2022/01/08 14:04:36;;;;;;;12.45;11.25;;;;;;;;;;5115388;28;20207;-56
2022/01/08 14:07:06;;;;;;;12.40;11.10;;;;;;;;;;5115796;28;20675;-56
2022/01/08 14:09:33;;;;;;;11.05;9.95;;;;;;;;;;5115517;28;20722;-56
2022/01/08 14:12:12;;;;;;;11.25;9.77;;;;;;;;;;5115547;28;20206;-56
2022/01/08 14:14:48;;;;;;;9.70;8.70;;;;;;;;;;5114362;28;20202;-57
2022/01/08 14:17:17;;;;;;;9.85;8.82;;;;;;;;;;5115538;28;20233;-56
2022/01/08 14:19:44;;;;;;;10.15;9.23;;;;;;;;;;5115105;28;20597;-56
2022/01/08 14:22:13;;;;;;;9.60;8.50;;;;;;;;;;5116122;28;20560;-56
2022/01/08 14:24:41;;;;;;;9.30;8.40;;;;;;;;;;5114720;28;20590;-56
2022/01/08 14:27:09;;;;;;;9.10;8.15;;;;;;;;;;5115131;28;20536;-57
2022/01/08 14:29:37;;;;;;;8.10;7.30;;;;;;;;;;5115404;28;20206;-56
2022/01/08 14:32:06;;;;;;;8.43;7.63;;;;;;;;;;5115383;28;20214;-56
2022/01/08 14:34:44;;;;;;;7.78;6.97;;;;;;;;;;5114943;28;20773;-57
2022/01/08 14:37:16;;;;;;;8.77;7.18;;;;;;;;;;5115343;28;20242;-56
2022/01/08 14:39:46;;;;;;;7.55;6.65;;;;;;;;;;5109971;28;20603;-57
2022/01/08 14:42:14;;;;;;;6.55;5.93;;;;;;;;;;5104720;28;20195;-57
2022/01/08 14:44:44;;;;;;;6.75;6.05;;;;;;;;;;5114746;28;20203;-56
2022/01/08 14:47:11;;;;;;;6.35;5.75;;;;;;;;;;5114957;28;20210;-56
2022/01/08 14:49:38;;;;;;;6.20;5.60;;;;;;;;;;5115100;28;20203;-56
2022/01/08 14:52:06;;;;;;;7.38;5.43;;;;;;;;;;5114661;28;20218;-56
2022/01/08 14:54:35;;;;;;;5.45;5.03;;;;;;;;;;5114931;28;20598;-56
2022/01/08 14:57:04;;;;;;;6.50;5.00;;;;;;;;;;5115013;28;20230;-57
2022/01/08 14:59:31;;;;;;;5.38;4.63;;;;;;;;;;5115631;28;20260;-56
2022/01/08 15:01:59;;;;;;;5.05;4.55;;;;;;;;;;5115400;28;20202;-56
2022/01/08 15:04:26;;;;;;;4.53;4.13;;;;;;;;;;5115862;28;20218;-56
2022/01/08 15:06:53;;;;;;;5.53;4.15;;;;;;;;;;5115347;28;20195;-56
2022/01/08 15:09:21;;;;;;;4.85;4.45;;;;;;;;;;5115407;28;20231;-56
2022/01/08 15:11:50;;;;;;;5.57;4.05;;;;;;;;;;5115087;28;20260;-57
2022/01/08 15:14:17;;;;;;;6.25;4.10;;;;;;;;;;5119013;28;20210;-57
2022/01/08 15:16:45;;;;;;;5.03;3.80;;;;;;;;;;5118854;28;20276;-57